sensor_id;sensor_type;location;lat;lon;timestamp;P1;durP1;ratioP1;P2;durP2;ratioP2
46777;SDS011;32536;47.128;8.746;2023-01-29T00:00:04;6.85;;;3.05;;
46777;SDS011;32536;47.128;8.746;2023-01-29T00:02:37;10.30;;;5.65;;
46777;SDS011;32536;47.128;8.746;2023-01-29T00:05:04;11.63;;;5.70;;
46777;SDS011;32536;47.128;8.746;2023-01-29T00:07:32;8.68;;;4.95;;
46777;SDS011;32536;47.128;8.746;2023-01-29T00:09:59;10.02;;;4.85;;
46777;SDS011;32536;47.128;8.746;2023-01-29T00:12:25;6.65;;;4.05;;
46777;SDS011;32536;47.128;8.746;2023-01-29T00:14:52;6.80;;;4.40;;
46777;SDS011;32536;47.128;8.746;2023-01-29T00:17:19;7.05;;;4.47;;
46777;SDS011;32536;47.128;8.746;2023-01-29T00:19:46;5.30;;;3.42;;
46777;SDS011;32536;47.128;8.746;2023-01-29T00:22:12;7.45;;;4.45;;
46777;SDS011;32536;47.128;8.746;2023-01-29T00:24:39;7.22;;;4.13;;
46777;SDS011;32536;47.128;8.746;2023-01-29T00:27:08;7.47;;;3.63;;
46777;SDS011;32536;47.128;8.746;2023-01-29T00:29:35;5.50;;;3.08;;
46777;SDS011;32536;47.128;8.746;2023-01-29T00:32:02;7.60;;;3.42;;
46777;SDS011;32536;47.128;8.746;2023-01-29T00:34:29;6.13;;;3.40;;
46777;SDS011;32536;47.128;8.746;2023-01-29T00:36:56;6.70;;;4.10;;
46777;SDS011;32536;47.128;8.746;2023-01-29T00:39:29;7.47;;;3.80;;
46777;SDS011;32536;47.128;8.746;2023-01-29T00:42:04;6.57;;;2.97;;
46777;SDS011;32536;47.128;8.746;2023-01-29T00:44:50;6.60;;;4.65;;
46777;SDS011;32536;47.128;8.746;2023-01-29T00:47:22;7.20;;;3.97;;
46777;SDS011;32536;47.128;8.746;2023-01-29T00:49:58;4.68;;;3.15;;
46777;SDS011;32536;47.128;8.746;2023-01-29T00:52:31;5.82;;;3.60;;
46777;SDS011;32536;47.128;8.746;2023-01-29T00:54:58;5.65;;;3.80;;
46777;SDS011;32536;47.128;8.746;2023-01-29T00:57:26;5.70;;;3.38;;
46777;SDS011;32536;47.128;8.746;2023-01-29T00:59:55;6.18;;;4.13;;
46777;SDS011;32536;47.128;8.746;2023-01-29T01:02:22;5.10;;;3.17;;
46777;SDS011;32536;47.128;8.746;2023-01-29T01:05:09;6.13;;;3.70;;
46777;SDS011;32536;47.128;8.746;2023-01-29T01:07:45;5.07;;;3.00;;
46777;SDS011;32536;47.128;8.746;2023-01-29T01:10:28;7.65;;;4.68;;
46777;SDS011;32536;47.128;8.746;2023-01-29T01:12:58;10.48;;;6.15;;
46777;SDS011;32536;47.128;8.746;2023-01-29T01:15:29;9.88;;;5.47;;
46777;SDS011;32536;47.128;8.746;2023-01-29T01:18:04;7.32;;;4.15;;
46777;SDS011;32536;47.128;8.746;2023-01-29T01:20:31;7.93;;;5.32;;
46777;SDS011;32536;47.128;8.746;2023-01-29T01:23:00;8.30;;;3.40;;
46777;SDS011;32536;47.128;8.746;2023-01-29T01:25:27;7.70;;;3.90;;
46777;SDS011;32536;47.128;8.746;2023-01-29T01:27:54;5.72;;;3.17;;
46777;SDS011;32536;47.128;8.746;2023-01-29T01:30:24;6.45;;;3.80;;
46777;SDS011;32536;47.128;8.746;2023-01-29T01:32:51;6.32;;;3.03;;
46777;SDS011;32536;47.128;8.746;2023-01-29T01:35:19;6.75;;;4.15;;
46777;SDS011;32536;47.128;8.746;2023-01-29T01:37:46;5.68;;;3.35;;
46777;SDS011;32536;47.128;8.746;2023-01-29T01:40:16;5.68;;;3.15;;
46777;SDS011;32536;47.128;8.746;2023-01-29T01:42:49;5.85;;;3.38;;
46777;SDS011;32536;47.128;8.746;2023-01-29T01:45:24;5.65;;;2.67;;
46777;SDS011;32536;47.128;8.746;2023-01-29T01:48:18;7.03;;;4.50;;
46777;SDS011;32536;47.128;8.746;2023-01-29T01:50:56;6.65;;;3.63;;
46777;SDS011;32536;47.128;8.746;2023-01-29T01:53:33;6.00;;;3.65;;
46777;SDS011;32536;47.128;8.746;2023-01-29T01:56:13;4.95;;;3.33;;
46777;SDS011;32536;47.128;8.746;2023-01-29T01:58:50;6.57;;;3.25;;
46777;SDS011;32536;47.128;8.746;2023-01-29T02:01:21;6.30;;;3.92;;
46777;SDS011;32536;47.128;8.746;2023-01-29T02:03:56;10.23;;;5.70;;
46777;SDS011;32536;47.128;8.746;2023-01-29T02:06:48;7.75;;;4.65;;
46777;SDS011;32536;47.128;8.746;2023-01-29T02:09:40;9.15;;;4.15;;
46777;SDS011;32536;47.128;8.746;2023-01-29T02:12:18;9.77;;;5.80;;
46777;SDS011;32536;47.128;8.746;2023-01-29T02:14:46;8.57;;;5.07;;
46777;SDS011;32536;47.128;8.746;2023-01-29T02:17:14;7.93;;;6.00;;
46777;SDS011;32536;47.128;8.746;2023-01-29T02:25:46;6.75;;;4.40;;
46777;SDS011;32536;47.128;8.746;2023-01-29T02:31:11;6.07;;;4.15;;
46777;SDS011;32536;47.128;8.746;2023-01-29T02:39:21;10.50;;;5.53;;
46777;SDS011;32536;47.128;8.746;2023-01-29T02:41:59;8.05;;;4.55;;
46777;SDS011;32536;47.128;8.746;2023-01-29T02:44:43;8.40;;;4.25;;
46777;SDS011;32536;47.128;8.746;2023-01-29T02:53:08;12.60;;;6.72;;
46777;SDS011;32536;47.128;8.746;2023-01-29T02:58:49;10.18;;;4.55;;
46777;SDS011;32536;47.128;8.746;2023-01-29T03:04:21;10.13;;;6.53;;
46777;SDS011;32536;47.128;8.746;2023-01-29T03:07:00;8.90;;;4.93;;
46777;SDS011;32536;47.128;8.746;2023-01-29T03:09:33;7.13;;;4.47;;
46777;SDS011;32536;47.128;8.746;2023-01-29T03:12:17;7.25;;;4.32;;
46777;SDS011;32536;47.128;8.746;2023-01-29T03:15:08;8.27;;;3.63;;
46777;SDS011;32536;47.128;8.746;2023-01-29T03:17:53;9.80;;;4.85;;
46777;SDS011;32536;47.128;8.746;2023-01-29T03:20:32;10.95;;;6.60;;
46777;SDS011;32536;47.128;8.746;2023-01-29T03:23:14;9.32;;;5.00;;
46777;SDS011;32536;47.128;8.746;2023-01-29T03:25:52;8.77;;;5.18;;
46777;SDS011;32536;47.128;8.746;2023-01-29T03:28:40;10.27;;;5.47;;
46777;SDS011;32536;47.128;8.746;2023-01-29T03:31:28;7.00;;;3.55;;
46777;SDS011;32536;47.128;8.746;2023-01-29T03:34:21;6.07;;;3.53;;
46777;SDS011;32536;47.128;8.746;2023-01-29T03:37:06;6.95;;;3.70;;
46777;SDS011;32536;47.128;8.746;2023-01-29T03:39:41;8.10;;;4.07;;
46777;SDS011;32536;47.128;8.746;2023-01-29T03:50:30;10.63;;;4.35;;
46777;SDS011;32536;47.128;8.746;2023-01-29T03:59:10;10.93;;;5.55;;
46777;SDS011;32536;47.128;8.746;2023-01-29T04:02:18;12.23;;;6.40;;
46777;SDS011;32536;47.128;8.746;2023-01-29T04:04:56;9.40;;;5.00;;
46777;SDS011;32536;47.128;8.746;2023-01-29T04:07:34;7.07;;;3.50;;
46777;SDS011;32536;47.128;8.746;2023-01-29T04:10:06;7.40;;;4.72;;
46777;SDS011;32536;47.128;8.746;2023-01-29T04:12:59;9.48;;;4.68;;
46777;SDS011;32536;47.128;8.746;2023-01-29T04:15:29;9.65;;;4.85;;
46777;SDS011;32536;47.128;8.746;2023-01-29T04:18:02;8.95;;;5.57;;
46777;SDS011;32536;47.128;8.746;2023-01-29T04:20:29;9.40;;;4.80;;
46777;SDS011;32536;47.128;8.746;2023-01-29T04:23:05;8.32;;;4.80;;
46777;SDS011;32536;47.128;8.746;2023-01-29T04:25:43;9.85;;;5.80;;
46777;SDS011;32536;47.128;8.746;2023-01-29T04:28:19;7.95;;;4.82;;
46777;SDS011;32536;47.128;8.746;2023-01-29T04:30:56;11.32;;;6.03;;
46777;SDS011;32536;47.128;8.746;2023-01-29T04:33:36;10.00;;;5.60;;
46777;SDS011;32536;47.128;8.746;2023-01-29T04:39:37;7.25;;;3.63;;
46777;SDS011;32536;47.128;8.746;2023-01-29T04:44:45;10.13;;;5.15;;
46777;SDS011;32536;47.128;8.746;2023-01-29T04:50:35;10.25;;;5.47;;
46777;SDS011;32536;47.128;8.746;2023-01-29T04:53:56;10.60;;;7.32;;
46777;SDS011;32536;47.128;8.746;2023-01-29T04:58:54;9.95;;;6.45;;
46777;SDS011;32536;47.128;8.746;2023-01-29T05:01:31;10.27;;;5.97;;
46777;SDS011;32536;47.128;8.746;2023-01-29T05:04:01;7.43;;;4.75;;
46777;SDS011;32536;47.128;8.746;2023-01-29T05:06:38;8.60;;;4.82;;
46777;SDS011;32536;47.128;8.746;2023-01-29T05:09:06;10.45;;;5.95;;
46777;SDS011;32536;47.128;8.746;2023-01-29T05:11:34;8.25;;;4.93;;
46777;SDS011;32536;47.128;8.746;2023-01-29T05:14:02;10.38;;;5.60;;
46777;SDS011;32536;47.128;8.746;2023-01-29T05:16:37;11.98;;;6.72;;
46777;SDS011;32536;47.128;8.746;2023-01-29T05:19:17;8.68;;;6.07;;
46777;SDS011;32536;47.128;8.746;2023-01-29T05:21:45;7.28;;;3.03;;
46777;SDS011;32536;47.128;8.746;2023-01-29T05:24:15;10.20;;;5.70;;
46777;SDS011;32536;47.128;8.746;2023-01-29T05:26:46;12.02;;;6.38;;
46777;SDS011;32536;47.128;8.746;2023-01-29T05:29:34;11.23;;;6.88;;
46777;SDS011;32536;47.128;8.746;2023-01-29T05:32:01;10.60;;;5.85;;
46777;SDS011;32536;47.128;8.746;2023-01-29T05:34:28;9.48;;;5.45;;
46777;SDS011;32536;47.128;8.746;2023-01-29T05:36:55;10.50;;;7.07;;
46777;SDS011;32536;47.128;8.746;2023-01-29T05:39:22;12.48;;;7.05;;
46777;SDS011;32536;47.128;8.746;2023-01-29T05:41:48;12.30;;;6.03;;
46777;SDS011;32536;47.128;8.746;2023-01-29T05:44:15;8.77;;;5.07;;
46777;SDS011;32536;47.128;8.746;2023-01-29T05:46:42;10.90;;;5.78;;
46777;SDS011;32536;47.128;8.746;2023-01-29T05:49:09;11.10;;;5.55;;
46777;SDS011;32536;47.128;8.746;2023-01-29T05:51:36;8.98;;;4.72;;
46777;SDS011;32536;47.128;8.746;2023-01-29T05:54:03;10.18;;;5.32;;
46777;SDS011;32536;47.128;8.746;2023-01-29T05:56:30;9.07;;;4.85;;
46777;SDS011;32536;47.128;8.746;2023-01-29T05:58:57;11.48;;;6.43;;
46777;SDS011;32536;47.128;8.746;2023-01-29T06:01:24;8.55;;;4.90;;
46777;SDS011;32536;47.128;8.746;2023-01-29T06:03:51;8.40;;;4.82;;
46777;SDS011;32536;47.128;8.746;2023-01-29T06:06:17;8.35;;;4.47;;
46777;SDS011;32536;47.128;8.746;2023-01-29T06:08:44;7.80;;;4.10;;
46777;SDS011;32536;47.128;8.746;2023-01-29T06:11:12;8.63;;;5.38;;
46777;SDS011;32536;47.128;8.746;2023-01-29T06:13:41;9.02;;;5.95;;
46777;SDS011;32536;47.128;8.746;2023-01-29T06:16:07;9.98;;;5.15;;
46777;SDS011;32536;47.128;8.746;2023-01-29T06:18:36;9.18;;;4.90;;
46777;SDS011;32536;47.128;8.746;2023-01-29T06:21:05;9.07;;;5.45;;
46777;SDS011;32536;47.128;8.746;2023-01-29T06:23:35;11.10;;;6.15;;
46777;SDS011;32536;47.128;8.746;2023-01-29T06:26:03;8.07;;;3.90;;
46777;SDS011;32536;47.128;8.746;2023-01-29T06:28:33;7.65;;;4.65;;
46777;SDS011;32536;47.128;8.746;2023-01-29T06:31:01;7.28;;;4.28;;
46777;SDS011;32536;47.128;8.746;2023-01-29T06:33:29;7.60;;;4.68;;
46777;SDS011;32536;47.128;8.746;2023-01-29T06:35:59;7.00;;;4.00;;
46777;SDS011;32536;47.128;8.746;2023-01-29T06:38:29;10.32;;;6.32;;
46777;SDS011;32536;47.128;8.746;2023-01-29T06:40:57;8.77;;;5.28;;
46777;SDS011;32536;47.128;8.746;2023-01-29T06:43:24;10.90;;;6.10;;
46777;SDS011;32536;47.128;8.746;2023-01-29T06:48:23;8.18;;;4.55;;
46777;SDS011;32536;47.128;8.746;2023-01-29T06:50:50;9.57;;;5.18;;
46777;SDS011;32536;47.128;8.746;2023-01-29T06:53:19;12.07;;;6.90;;
46777;SDS011;32536;47.128;8.746;2023-01-29T06:55:50;11.50;;;6.50;;
46777;SDS011;32536;47.128;8.746;2023-01-29T06:58:17;9.95;;;4.80;;
46777;SDS011;32536;47.128;8.746;2023-01-29T07:00:45;9.43;;;6.38;;
46777;SDS011;32536;47.128;8.746;2023-01-29T07:03:12;12.52;;;7.13;;
46777;SDS011;32536;47.128;8.746;2023-01-29T07:05:39;9.98;;;5.43;;
46777;SDS011;32536;47.128;8.746;2023-01-29T07:08:05;8.68;;;5.82;;
46777;SDS011;32536;47.128;8.746;2023-01-29T07:10:34;9.05;;;5.72;;
46777;SDS011;32536;47.128;8.746;2023-01-29T07:13:01;9.75;;;5.60;;
46777;SDS011;32536;47.128;8.746;2023-01-29T07:15:28;9.32;;;5.82;;
46777;SDS011;32536;47.128;8.746;2023-01-29T07:17:55;10.43;;;5.72;;
46777;SDS011;32536;47.128;8.746;2023-01-29T07:20:27;7.93;;;5.15;;
46777;SDS011;32536;47.128;8.746;2023-01-29T07:23:14;7.90;;;5.25;;
46777;SDS011;32536;47.128;8.746;2023-01-29T07:25:42;9.00;;;5.32;;
46777;SDS011;32536;47.128;8.746;2023-01-29T07:28:09;8.63;;;5.50;;
46777;SDS011;32536;47.128;8.746;2023-01-29T07:30:36;10.00;;;5.10;;
46777;SDS011;32536;47.128;8.746;2023-01-29T07:33:06;11.40;;;4.28;;
46777;SDS011;32536;47.128;8.746;2023-01-29T07:35:38;6.68;;;4.35;;
46777;SDS011;32536;47.128;8.746;2023-01-29T07:38:08;7.25;;;4.55;;
46777;SDS011;32536;47.128;8.746;2023-01-29T07:40:36;10.55;;;6.28;;
46777;SDS011;32536;47.128;8.746;2023-01-29T07:43:04;9.68;;;5.90;;
46777;SDS011;32536;47.128;8.746;2023-01-29T07:45:33;9.45;;;5.40;;
46777;SDS011;32536;47.128;8.746;2023-01-29T07:48:01;8.73;;;4.78;;
46777;SDS011;32536;47.128;8.746;2023-01-29T07:50:33;8.80;;;7.00;;
46777;SDS011;32536;47.128;8.746;2023-01-29T07:53:00;5.78;;;2.58;;
46777;SDS011;32536;47.128;8.746;2023-01-29T07:55:27;6.45;;;4.55;;
46777;SDS011;32536;47.128;8.746;2023-01-29T07:57:58;8.60;;;5.80;;
46777;SDS011;32536;47.128;8.746;2023-01-29T08:03:05;5.43;;;2.85;;
46777;SDS011;32536;47.128;8.746;2023-01-29T08:05:37;4.53;;;2.95;;
46777;SDS011;32536;47.128;8.746;2023-01-29T08:08:04;6.20;;;3.60;;
46777;SDS011;32536;47.128;8.746;2023-01-29T08:10:30;7.47;;;4.55;;
46777;SDS011;32536;47.128;8.746;2023-01-29T08:12:58;6.97;;;4.03;;
46777;SDS011;32536;47.128;8.746;2023-01-29T08:15:27;8.43;;;4.90;;
46777;SDS011;32536;47.128;8.746;2023-01-29T08:17:54;7.88;;;4.97;;
46777;SDS011;32536;47.128;8.746;2023-01-29T08:20:21;7.47;;;4.88;;
46777;SDS011;32536;47.128;8.746;2023-01-29T08:25:46;9.10;;;4.80;;
46777;SDS011;32536;47.128;8.746;2023-01-29T08:28:13;10.90;;;4.50;;
46777;SDS011;32536;47.128;8.746;2023-01-29T08:30:40;9.50;;;5.82;;
46777;SDS011;32536;47.128;8.746;2023-01-29T08:33:08;7.68;;;4.85;;
46777;SDS011;32536;47.128;8.746;2023-01-29T08:35:35;7.55;;;4.75;;
46777;SDS011;32536;47.128;8.746;2023-01-29T08:38:03;8.93;;;6.20;;
46777;SDS011;32536;47.128;8.746;2023-01-29T08:40:31;9.23;;;5.45;;
46777;SDS011;32536;47.128;8.746;2023-01-29T08:43:03;11.77;;;7.32;;
46777;SDS011;32536;47.128;8.746;2023-01-29T08:45:33;11.13;;;4.88;;
46777;SDS011;32536;47.128;8.746;2023-01-29T08:48:03;13.40;;;7.68;;
46777;SDS011;32536;47.128;8.746;2023-01-29T08:50:30;14.60;;;6.90;;
46777;SDS011;32536;47.128;8.746;2023-01-29T08:53:01;16.55;;;8.55;;
46777;SDS011;32536;47.128;8.746;2023-01-29T08:55:32;12.35;;;5.95;;
46777;SDS011;32536;47.128;8.746;2023-01-29T08:58:02;11.25;;;6.35;;
46777;SDS011;32536;47.128;8.746;2023-01-29T09:00:37;10.30;;;6.25;;
46777;SDS011;32536;47.128;8.746;2023-01-29T09:03:04;10.02;;;6.35;;
46777;SDS011;32536;47.128;8.746;2023-01-29T09:05:33;10.38;;;4.90;;
46777;SDS011;32536;47.128;8.746;2023-01-29T09:08:01;12.98;;;6.90;;
46777;SDS011;32536;47.128;8.746;2023-01-29T09:10:28;11.27;;;5.55;;
46777;SDS011;32536;47.128;8.746;2023-01-29T09:12:54;12.93;;;7.93;;
46777;SDS011;32536;47.128;8.746;2023-01-29T09:15:21;11.05;;;5.95;;
46777;SDS011;32536;47.128;8.746;2023-01-29T09:17:48;10.73;;;5.90;;
46777;SDS011;32536;47.128;8.746;2023-01-29T09:20:15;11.25;;;5.20;;
46777;SDS011;32536;47.128;8.746;2023-01-29T09:22:44;7.75;;;4.70;;
46777;SDS011;32536;47.128;8.746;2023-01-29T09:25:11;10.90;;;5.35;;
46777;SDS011;32536;47.128;8.746;2023-01-29T09:27:39;9.70;;;5.20;;
46777;SDS011;32536;47.128;8.746;2023-01-29T09:30:05;12.07;;;6.10;;
46777;SDS011;32536;47.128;8.746;2023-01-29T09:32:33;11.57;;;4.65;;
46777;SDS011;32536;47.128;8.746;2023-01-29T09:34:59;6.72;;;3.45;;
46777;SDS011;32536;47.128;8.746;2023-01-29T09:37:26;7.75;;;5.07;;
46777;SDS011;32536;47.128;8.746;2023-01-29T09:39:53;5.75;;;3.50;;
46777;SDS011;32536;47.128;8.746;2023-01-29T09:42:40;5.35;;;3.17;;
46777;SDS011;32536;47.128;8.746;2023-01-29T09:45:23;7.57;;;3.90;;
46777;SDS011;32536;47.128;8.746;2023-01-29T09:47:52;8.63;;;4.15;;
46777;SDS011;32536;47.128;8.746;2023-01-29T09:50:29;8.32;;;4.03;;
46777;SDS011;32536;47.128;8.746;2023-01-29T09:53:16;8.90;;;4.95;;
46777;SDS011;32536;47.128;8.746;2023-01-29T09:55:55;8.45;;;4.30;;
46777;SDS011;32536;47.128;8.746;2023-01-29T10:01:11;9.40;;;5.68;;
46777;SDS011;32536;47.128;8.746;2023-01-29T10:26:53;8.35;;;4.65;;
46777;SDS011;32536;47.128;8.746;2023-01-29T10:29:21;9.15;;;4.38;;
46777;SDS011;32536;47.128;8.746;2023-01-29T10:31:52;5.82;;;3.05;;
46777;SDS011;32536;47.128;8.746;2023-01-29T10:34:29;6.32;;;3.72;;
46777;SDS011;32536;47.128;8.746;2023-01-29T10:37:10;6.25;;;3.33;;
46777;SDS011;32536;47.128;8.746;2023-01-29T10:39:49;6.63;;;3.45;;
46777;SDS011;32536;47.128;8.746;2023-01-29T10:42:27;5.30;;;3.63;;
46777;SDS011;32536;47.128;8.746;2023-01-29T10:54:35;6.50;;;3.95;;
46777;SDS011;32536;47.128;8.746;2023-01-29T10:56:50;9.60;;;5.53;;
46777;SDS011;32536;47.128;8.746;2023-01-29T10:59:40;9.80;;;5.53;;
46777;SDS011;32536;47.128;8.746;2023-01-29T11:02:47;10.38;;;5.70;;
46777;SDS011;32536;47.128;8.746;2023-01-29T11:08:12;7.32;;;4.00;;
46777;SDS011;32536;47.128;8.746;2023-01-29T11:11:19;8.93;;;4.35;;
46777;SDS011;32536;47.128;8.746;2023-01-29T11:13:44;6.05;;;4.05;;
46777;SDS011;32536;47.128;8.746;2023-01-29T11:16:38;5.90;;;3.63;;
46777;SDS011;32536;47.128;8.746;2023-01-29T11:19:08;7.53;;;4.15;;
46777;SDS011;32536;47.128;8.746;2023-01-29T11:21:52;7.80;;;4.28;;
46777;SDS011;32536;47.128;8.746;2023-01-29T11:24:24;8.95;;;4.53;;
46777;SDS011;32536;47.128;8.746;2023-01-29T11:26:53;11.95;;;6.38;;
46777;SDS011;32536;47.128;8.746;2023-01-29T11:31:58;11.73;;;7.22;;
46777;SDS011;32536;47.128;8.746;2023-01-29T11:34:29;10.20;;;5.55;;
46777;SDS011;32536;47.128;8.746;2023-01-29T11:36:57;13.50;;;6.82;;
46777;SDS011;32536;47.128;8.746;2023-01-29T11:39:29;7.95;;;3.88;;
46777;SDS011;32536;47.128;8.746;2023-01-29T11:41:58;7.65;;;4.13;;
46777;SDS011;32536;47.128;8.746;2023-01-29T11:47:11;5.32;;;3.75;;
46777;SDS011;32536;47.128;8.746;2023-01-29T11:49:53;10.85;;;6.40;;
46777;SDS011;32536;47.128;8.746;2023-01-29T11:52:39;11.77;;;6.45;;
46777;SDS011;32536;47.128;8.746;2023-01-29T11:57:47;12.38;;;7.10;;
46777;SDS011;32536;47.128;8.746;2023-01-29T12:00:22;8.50;;;4.93;;
46777;SDS011;32536;47.128;8.746;2023-01-29T12:02:53;6.82;;;3.95;;
46777;SDS011;32536;47.128;8.746;2023-01-29T12:05:37;7.57;;;3.97;;
46777;SDS011;32536;47.128;8.746;2023-01-29T12:08:13;8.98;;;5.03;;
46777;SDS011;32536;47.128;8.746;2023-01-29T12:10:43;8.30;;;4.15;;
46777;SDS011;32536;47.128;8.746;2023-01-29T12:15:44;6.60;;;4.28;;
46777;SDS011;32536;47.128;8.746;2023-01-29T12:21:01;7.07;;;3.92;;
46777;SDS011;32536;47.128;8.746;2023-01-29T12:26:29;8.27;;;4.90;;
46777;SDS011;32536;47.128;8.746;2023-01-29T12:29:15;9.65;;;5.22;;
46777;SDS011;32536;47.128;8.746;2023-01-29T12:32:36;11.20;;;5.65;;
46777;SDS011;32536;47.128;8.746;2023-01-29T12:35:32;12.63;;;6.03;;
46777;SDS011;32536;47.128;8.746;2023-01-29T12:38:17;11.93;;;5.93;;
46777;SDS011;32536;47.128;8.746;2023-01-29T12:43:37;7.93;;;4.32;;
46777;SDS011;32536;47.128;8.746;2023-01-29T12:46:19;7.32;;;3.88;;
46777;SDS011;32536;47.128;8.746;2023-01-29T12:48:47;9.40;;;4.22;;
46777;SDS011;32536;47.128;8.746;2023-01-29T12:51:17;6.20;;;3.05;;
46777;SDS011;32536;47.128;8.746;2023-01-29T12:59:03;7.10;;;4.32;;
46777;SDS011;32536;47.128;8.746;2023-01-29T13:01:58;9.50;;;5.43;;
46777;SDS011;32536;47.128;8.746;2023-01-29T13:04:44;7.15;;;3.47;;
46777;SDS011;32536;47.128;8.746;2023-01-29T13:07:37;7.40;;;3.90;;
46777;SDS011;32536;47.128;8.746;2023-01-29T13:10:12;7.50;;;4.30;;
46777;SDS011;32536;47.128;8.746;2023-01-29T13:12:56;6.15;;;3.78;;
46777;SDS011;32536;47.128;8.746;2023-01-29T13:16:06;5.45;;;3.90;;
46777;SDS011;32536;47.128;8.746;2023-01-29T13:21:24;7.10;;;3.25;;
46777;SDS011;32536;47.128;8.746;2023-01-29T13:23:59;7.05;;;4.13;;
46777;SDS011;32536;47.128;8.746;2023-01-29T13:26:32;6.20;;;3.42;;
46777;SDS011;32536;47.128;8.746;2023-01-29T13:28:59;8.52;;;4.55;;
46777;SDS011;32536;47.128;8.746;2023-01-29T13:31:36;7.95;;;4.25;;
46777;SDS011;32536;47.128;8.746;2023-01-29T13:36:41;6.47;;;3.53;;
46777;SDS011;32536;47.128;8.746;2023-01-29T13:39:30;10.23;;;5.72;;
46777;SDS011;32536;47.128;8.746;2023-01-29T13:42:52;9.63;;;5.40;;
46777;SDS011;32536;47.128;8.746;2023-01-29T13:47:53;7.43;;;4.38;;
46777;SDS011;32536;47.128;8.746;2023-01-29T13:50:43;9.18;;;4.72;;
46777;SDS011;32536;47.128;8.746;2023-01-29T13:53:51;5.50;;;2.83;;
46777;SDS011;32536;47.128;8.746;2023-01-29T13:58:59;4.53;;;2.95;;
46777;SDS011;32536;47.128;8.746;2023-01-29T14:04:25;7.68;;;4.82;;
46777;SDS011;32536;47.128;8.746;2023-01-29T14:17:22;8.77;;;4.78;;
46777;SDS011;32536;47.128;8.746;2023-01-29T14:19:53;7.80;;;4.45;;
46777;SDS011;32536;47.128;8.746;2023-01-29T14:22:28;7.88;;;3.90;;
46777;SDS011;32536;47.128;8.746;2023-01-29T14:25:00;8.57;;;3.92;;
46777;SDS011;32536;47.128;8.746;2023-01-29T14:27:30;8.18;;;4.72;;
46777;SDS011;32536;47.128;8.746;2023-01-29T14:30:02;7.78;;;4.30;;
46777;SDS011;32536;47.128;8.746;2023-01-29T14:32:37;7.28;;;3.78;;
46777;SDS011;32536;47.128;8.746;2023-01-29T14:35:18;9.98;;;4.72;;
46777;SDS011;32536;47.128;8.746;2023-01-29T14:37:50;14.13;;;7.30;;
46777;SDS011;32536;47.128;8.746;2023-01-29T14:40:22;15.93;;;7.90;;
46777;SDS011;32536;47.128;8.746;2023-01-29T14:42:58;13.25;;;6.53;;
46777;SDS011;32536;47.128;8.746;2023-01-29T14:45:32;13.70;;;6.75;;
46777;SDS011;32536;47.128;8.746;2023-01-29T14:48:12;10.32;;;5.90;;
46777;SDS011;32536;47.128;8.746;2023-01-29T14:51:14;10.00;;;5.30;;
46777;SDS011;32536;47.128;8.746;2023-01-29T14:53:44;11.07;;;4.78;;
46777;SDS011;32536;47.128;8.746;2023-01-29T14:56:35;11.32;;;6.00;;
46777;SDS011;32536;47.128;8.746;2023-01-29T14:59:21;12.45;;;6.63;;
46777;SDS011;32536;47.128;8.746;2023-01-29T15:01:55;9.88;;;5.30;;
46777;SDS011;32536;47.128;8.746;2023-01-29T15:04:30;9.35;;;4.88;;
46777;SDS011;32536;47.128;8.746;2023-01-29T15:07:18;9.90;;;4.75;;
46777;SDS011;32536;47.128;8.746;2023-01-29T15:15:15;9.77;;;4.78;;
46777;SDS011;32536;47.128;8.746;2023-01-29T15:21:01;9.25;;;5.55;;
46777;SDS011;32536;47.128;8.746;2023-01-29T15:23:44;9.32;;;5.32;;
46777;SDS011;32536;47.128;8.746;2023-01-29T15:26:17;9.45;;;4.90;;
46777;SDS011;32536;47.128;8.746;2023-01-29T15:28:54;11.27;;;6.43;;
46777;SDS011;32536;47.128;8.746;2023-01-29T15:31:23;12.38;;;6.38;;
46777;SDS011;32536;47.128;8.746;2023-01-29T15:33:50;10.80;;;5.22;;
46777;SDS011;32536;47.128;8.746;2023-01-29T15:36:24;7.97;;;4.75;;
46777;SDS011;32536;47.128;8.746;2023-01-29T15:39:14;11.85;;;6.38;;
46777;SDS011;32536;47.128;8.746;2023-01-29T15:41:43;7.55;;;4.80;;
46777;SDS011;32536;47.128;8.746;2023-01-29T15:44:15;7.88;;;4.80;;
46777;SDS011;32536;47.128;8.746;2023-01-29T15:46:47;10.40;;;5.90;;
46777;SDS011;32536;47.128;8.746;2023-01-29T15:49:22;9.40;;;5.20;;
46777;SDS011;32536;47.128;8.746;2023-01-29T15:51:57;12.93;;;5.30;;
46777;SDS011;32536;47.128;8.746;2023-01-29T15:54:29;9.25;;;5.30;;
46777;SDS011;32536;47.128;8.746;2023-01-29T15:56:58;9.25;;;4.53;;
46777;SDS011;32536;47.128;8.746;2023-01-29T15:59:31;5.82;;;2.85;;
46777;SDS011;32536;47.128;8.746;2023-01-29T16:05:00;7.75;;;4.03;;
46777;SDS011;32536;47.128;8.746;2023-01-29T16:07:28;6.20;;;3.70;;
46777;SDS011;32536;47.128;8.746;2023-01-29T16:09:55;8.50;;;4.03;;
46777;SDS011;32536;47.128;8.746;2023-01-29T16:12:23;5.07;;;3.03;;
46777;SDS011;32536;47.128;8.746;2023-01-29T16:14:50;4.25;;;2.63;;
46777;SDS011;32536;47.128;8.746;2023-01-29T16:19:55;8.13;;;4.05;;
46777;SDS011;32536;47.128;8.746;2023-01-29T16:22:34;8.70;;;4.47;;
46777;SDS011;32536;47.128;8.746;2023-01-29T16:25:04;7.20;;;4.28;;
46777;SDS011;32536;47.128;8.746;2023-01-29T16:27:37;7.03;;;3.92;;
46777;SDS011;32536;47.128;8.746;2023-01-29T16:30:08;7.32;;;4.07;;
46777;SDS011;32536;47.128;8.746;2023-01-29T16:35:11;8.00;;;4.68;;
46777;SDS011;32536;47.128;8.746;2023-01-29T16:37:41;8.75;;;4.57;;
46777;SDS011;32536;47.128;8.746;2023-01-29T16:40:27;7.18;;;3.92;;
46777;SDS011;32536;47.128;8.746;2023-01-29T16:45:42;8.63;;;4.60;;
46777;SDS011;32536;47.128;8.746;2023-01-29T16:48:50;7.30;;;4.30;;
46777;SDS011;32536;47.128;8.746;2023-01-29T16:51:22;9.48;;;4.93;;
46777;SDS011;32536;47.128;8.746;2023-01-29T16:53:58;7.13;;;3.40;;
46777;SDS011;32536;47.128;8.746;2023-01-29T16:56:36;6.35;;;3.65;;
46777;SDS011;32536;47.128;8.746;2023-01-29T16:59:04;8.25;;;5.03;;
46777;SDS011;32536;47.128;8.746;2023-01-29T17:01:33;6.35;;;3.65;;
46777;SDS011;32536;47.128;8.746;2023-01-29T17:04:07;5.55;;;3.20;;
46777;SDS011;32536;47.128;8.746;2023-01-29T17:06:41;9.40;;;5.22;;
46777;SDS011;32536;47.128;8.746;2023-01-29T17:09:34;8.85;;;5.35;;
46777;SDS011;32536;47.128;8.746;2023-01-29T17:12:06;11.52;;;5.90;;
46777;SDS011;32536;47.128;8.746;2023-01-29T17:14:39;11.15;;;6.90;;
46777;SDS011;32536;47.128;8.746;2023-01-29T17:17:27;13.10;;;6.07;;
46777;SDS011;32536;47.128;8.746;2023-01-29T17:20:05;12.35;;;5.97;;
46777;SDS011;32536;47.128;8.746;2023-01-29T17:22:38;12.40;;;6.22;;
46777;SDS011;32536;47.128;8.746;2023-01-29T17:25:05;15.05;;;7.63;;
46777;SDS011;32536;47.128;8.746;2023-01-29T17:27:34;15.18;;;7.25;;
46777;SDS011;32536;47.128;8.746;2023-01-29T17:30:01;11.57;;;5.68;;
46777;SDS011;32536;47.128;8.746;2023-01-29T17:32:27;12.20;;;7.13;;
46777;SDS011;32536;47.128;8.746;2023-01-29T17:34:54;13.95;;;6.55;;
46777;SDS011;32536;47.128;8.746;2023-01-29T17:37:21;10.02;;;5.70;;
46777;SDS011;32536;47.128;8.746;2023-01-29T17:39:48;10.70;;;6.22;;
46777;SDS011;32536;47.128;8.746;2023-01-29T17:42:17;15.70;;;7.55;;
46777;SDS011;32536;47.128;8.746;2023-01-29T17:44:43;12.57;;;7.20;;
46777;SDS011;32536;47.128;8.746;2023-01-29T17:47:11;8.98;;;4.65;;
46777;SDS011;32536;47.128;8.746;2023-01-29T17:49:42;11.85;;;6.18;;
46777;SDS011;32536;47.128;8.746;2023-01-29T17:52:08;13.35;;;7.45;;
46777;SDS011;32536;47.128;8.746;2023-01-29T17:54:36;13.57;;;6.90;;
46777;SDS011;32536;47.128;8.746;2023-01-29T17:57:02;8.95;;;4.88;;
46777;SDS011;32536;47.128;8.746;2023-01-29T17:59:30;9.13;;;4.95;;
46777;SDS011;32536;47.128;8.746;2023-01-29T18:01:58;8.52;;;4.68;;
46777;SDS011;32536;47.128;8.746;2023-01-29T18:04:25;6.95;;;4.45;;
46777;SDS011;32536;47.128;8.746;2023-01-29T18:06:52;7.70;;;4.72;;